Wanilla, Mississippi
Current Conditions -  °F | °C
As of 9:53 PM on Friday 19 Dec 2014 (Local Time) from KMCB Reporting Station
Moderate Rain Moderate Rain  
Wind Chill: 41°   Ceiling: 600
Heat Index: 46°   Visibility: 3mi
Dew Point: 44°   Wind: 9mph
Humidity: 93%   Direction: 110°ESE
Pressure: 30.11"   Gusts: NA
Location:  31.4742°N, 90.119°W
Report Text: KMCB 200353Z AUTO 11008KT 3SM RA BR BKN006 BKN044 OVC065 08/07 A3011 RMK AO2 SLP195 P0004 T00780067
Loading
Personal Weather Stations






























Interactive Weather Map New forecast layout! Learn more

10-Day Weather Forecast

Advertisements
Track Severe Weather on mobile